Coalton, Illinois
Current Conditions -  °F | °C
As of 9:35 AM on Saturday 20 Dec 2014 (Local Time) from KTAZ Reporting Station
Overcast Overcast  
Wind Chill: 27°   Ceiling: 6000
Heat Index: 32°   Visibility: 7mi
Dew Point: 28°   Wind: 5mph
Humidity: 87%   Direction: 140°SE
Pressure: 30.3"   Gusts: NA
Location:  39.3183°N, 89.2952°W
Report Text: KTAZ 201535Z AUTO 14004KT 7SM OVC060 00/M02 A3030 RMK AO2
Loading
Personal Weather Stations






























Interactive Weather Map New forecast layout! Learn more

10-Day Weather Forecast

Advertisements
Track Severe Weather on mobile